createdAt,value
2022-10-23T00:00:45.421Z,25.00
2022-10-23T00:03:35.036Z,25.30
2022-10-23T00:06:32.158Z,26.40
2022-10-23T00:10:44.918Z,26.70
2022-10-23T00:11:56.009Z,26.00
2022-10-23T00:14:31.400Z,25.00
2022-10-23T00:17:18.999Z,27.50
2022-10-23T00:19:57.080Z,26.00
2022-10-23T00:22:27.075Z,25.20
2022-10-23T00:24:53.863Z,26.30
2022-10-23T00:27:29.737Z,22.60
2022-10-23T00:29:58.036Z,24.40
2022-10-23T00:32:25.331Z,23.90
2022-10-23T00:34:52.213Z,25.60
2022-10-23T00:37:24.374Z,23.00
2022-10-23T00:40:04.966Z,26.60
2022-10-23T00:42:37.659Z,27.00
2022-10-23T00:47:56.021Z,26.60
2022-10-23T00:51:07.718Z,24.60
2022-10-23T00:55:07.343Z,26.70
2022-10-23T00:57:54.654Z,22.90
2022-10-23T01:00:28.982Z,23.40
2022-10-23T01:03:05.026Z,24.30
2022-10-23T01:05:53.661Z,24.70
2022-10-23T01:09:05.346Z,25.70
2022-10-23T01:11:50.173Z,24.10
2022-10-23T01:14:54.502Z,21.00
2022-10-23T01:17:55.669Z,21.00
2022-10-23T01:20:53.680Z,18.30
2022-10-23T01:24:16.334Z,21.80
2022-10-23T01:27:30.754Z,24.90
2022-10-23T01:30:20.593Z,22.90
2022-10-23T01:33:20.171Z,21.90
2022-10-23T01:35:57.766Z,21.10
2022-10-23T01:38:39.306Z,24.30
2022-10-23T01:44:02.345Z,27.00
2022-10-23T01:46:58.142Z,27.20
2022-10-23T01:49:30.229Z,23.70
2022-10-23T01:55:27.389Z,26.40
2022-10-23T01:57:59.194Z,27.40
2022-10-23T02:01:06.941Z,27.20
2022-10-23T02:03:43.689Z,27.10
2022-10-23T02:06:11.685Z,25.70
2022-10-23T02:08:43.250Z,25.30
2022-10-23T02:11:20.598Z,26.70
2022-10-23T02:14:36.983Z,27.20
2022-10-23T02:21:57.398Z,26.10
2022-10-23T02:25:02.466Z,26.80
2022-10-23T02:32:49.098Z,25.80
2022-10-23T02:41:20.790Z,27.00
2022-10-23T02:44:55.731Z,26.50
2022-10-23T02:48:45.142Z,27.50
2022-10-23T02:56:43.542Z,25.60
2022-10-23T03:02:29.048Z,26.90
2022-10-23T03:11:50.735Z,26.50
2022-10-23T03:14:30.663Z,26.60
2022-10-23T03:17:28.717Z,24.50
2022-10-23T03:18:01.834Z,26.20
2022-10-23T03:20:30.213Z,27.10
2022-10-23T03:23:07.881Z,26.30
2022-10-23T03:25:50.915Z,25.50
2022-10-23T03:28:42.792Z,25.80
2022-10-23T03:31:33.542Z,25.90
2022-10-23T03:34:23.524Z,27.60
2022-10-23T03:37:46.081Z,26.10
2022-10-23T03:44:35.944Z,28.40
2022-10-23T03:54:20.165Z,25.70
2022-10-23T03:57:18.270Z,26.90
2022-10-23T04:00:39.817Z,25.50
2022-10-23T04:07:13.170Z,26.80
2022-10-23T04:10:28.067Z,26.20
2022-10-23T04:13:27.757Z,24.80
2022-10-23T04:16:24.868Z,25.10
2022-10-23T04:19:16.191Z,25.10
2022-10-23T04:22:00.608Z,26.00
2022-10-23T04:26:38.103Z,25.30
2022-10-23T04:28:18.844Z,24.90
2022-10-23T04:31:43.589Z,24.10
2022-10-23T04:36:01.609Z,24.60
2022-10-23T04:38:30.706Z,24.30
2022-10-23T04:41:15.979Z,24.90
2022-10-23T04:44:27.050Z,24.90
2022-10-23T04:49:48.654Z,26.10
2022-10-23T04:52:09.502Z,24.70
2022-10-23T04:55:32.684Z,24.40
2022-10-23T04:59:09.716Z,25.70
2022-10-23T05:02:15.264Z,26.20
2022-10-23T05:05:51.350Z,24.20
2022-10-23T05:09:09.600Z,25.60
2022-10-23T05:20:40.603Z,26.40
2022-10-23T05:24:24.509Z,30.90
2022-10-23T05:31:52.815Z,29.70
2022-10-23T05:35:02.053Z,25.70
2022-10-23T05:47:18.276Z,24.10
2022-10-23T05:53:40.232Z,24.00
2022-10-23T06:00:43.329Z,24.20
2022-10-23T06:01:07.858Z,24.60
2022-10-23T06:04:52.827Z,25.50
2022-10-23T06:13:06.688Z,24.60
2022-10-23T06:17:26.615Z,24.20
2022-10-23T06:20:41.319Z,24.00
2022-10-23T06:29:19.083Z,24.60
2022-10-23T06:56:28.273Z,20.30
2022-10-23T07:10:48.960Z,20.20
2022-10-23T07:14:53.936Z,19.40
2022-10-23T07:25:17.165Z,18.40
2022-10-23T07:27:57.925Z,17.90
2022-10-23T07:32:29.970Z,16.30
2022-10-23T07:35:48.197Z,17.70
2022-10-23T07:39:41.390Z,17.10
2022-10-23T07:42:22.858Z,17.60
2022-10-23T07:45:07.849Z,19.20
2022-10-23T07:48:06.846Z,16.40
2022-10-23T07:51:26.556Z,17.30
2022-10-23T07:54:29.215Z,16.20
2022-10-23T07:57:08.997Z,17.60
2022-10-23T08:00:40.329Z,17.60
2022-10-23T08:03:58.747Z,21.10
2022-10-23T08:06:58.941Z,21.60
2022-10-23T08:09:39.799Z,20.40
2022-10-23T08:12:18.891Z,22.70
2022-10-23T08:15:05.598Z,20.30
2022-10-23T08:18:33.753Z,19.00
2022-10-23T08:21:09.065Z,18.90
2022-10-23T08:24:00.436Z,18.90
2022-10-23T08:26:45.900Z,19.30
2022-10-23T08:29:25.741Z,20.40
2022-10-23T08:32:41.775Z,22.20
2022-10-23T08:35:28.664Z,19.40
2022-10-23T08:38:07.621Z,20.40
2022-10-23T08:41:42.458Z,21.00
2022-10-23T08:44:26.688Z,24.30
2022-10-23T08:47:17.234Z,21.90
2022-10-23T08:50:45.830Z,20.00
2022-10-23T08:53:43.783Z,19.70
2022-10-23T08:57:34.285Z,19.10
2022-10-23T08:59:49.967Z,19.00
2022-10-23T09:02:42.747Z,21.20
2022-10-23T09:05:39.903Z,20.10
2022-10-23T09:12:26.896Z,18.80
2022-10-23T09:15:20.029Z,19.90
2022-10-23T09:15:40.715Z,18.50
2022-10-23T09:18:30.506Z,19.90
2022-10-23T09:21:30.673Z,20.10
2022-10-23T09:24:47.654Z,20.00
2022-10-23T09:36:21.115Z,18.80
2022-10-23T09:40:21.419Z,19.30
2022-10-23T09:43:43.691Z,19.10
2022-10-23T09:46:19.447Z,18.00
2022-10-23T09:49:17.518Z,18.10
2022-10-23T09:52:21.689Z,18.40
2022-10-23T09:55:11.035Z,19.30
2022-10-23T09:58:34.796Z,18.50
2022-10-23T10:01:29.078Z,17.40
2022-10-23T10:04:17.000Z,17.90
2022-10-23T10:07:09.172Z,18.50
2022-10-23T10:09:45.422Z,18.90
2022-10-23T10:12:56.027Z,18.20
2022-10-23T10:16:02.223Z,17.90
2022-10-23T10:29:03.646Z,18.50
2022-10-23T10:32:45.819Z,17.90
2022-10-23T10:36:04.334Z,18.10
2022-10-23T10:39:40.244Z,17.90
2022-10-23T10:42:36.276Z,18.10
2022-10-23T10:45:27.819Z,18.30
2022-10-23T10:48:48.556Z,18.30
2022-10-23T10:52:33.098Z,17.60
2022-10-23T10:56:04.230Z,19.40
2022-10-23T10:58:58.604Z,19.10
2022-10-23T11:05:39.051Z,18.70
2022-10-23T11:08:50.065Z,16.50
2022-10-23T11:12:59.257Z,16.40
2022-10-23T11:15:46.273Z,16.50
2022-10-23T11:18:21.601Z,15.70
2022-10-23T11:51:32.542Z,16.50
2022-10-23T11:55:14.647Z,15.60
2022-10-23T11:57:43.547Z,14.90
2022-10-23T12:00:39.256Z,14.40
2022-10-23T12:04:03.631Z,13.90
2022-10-23T12:07:15.801Z,14.50
2022-10-23T12:10:48.103Z,13.60
2022-10-23T12:13:59.824Z,14.20
2022-10-23T12:16:37.006Z,13.10
2022-10-23T12:19:23.580Z,13.40
2022-10-23T12:22:18.730Z,12.60
2022-10-23T12:25:43.043Z,12.60
2022-10-23T12:28:34.040Z,12.70
2022-10-23T12:31:33.129Z,13.00
2022-10-23T12:37:28.710Z,12.10
2022-10-23T12:40:10.007Z,12.00
2022-10-23T12:42:54.696Z,11.50
2022-10-23T12:45:31.056Z,12.40
2022-10-23T12:48:05.280Z,12.00
2022-10-23T13:06:48.497Z,12.80
2022-10-23T13:09:32.330Z,12.10
2022-10-23T16:55:55.051Z,29.20
2022-10-23T16:58:44.611Z,29.10
2022-10-23T18:20:54.908Z,45.70
2022-10-23T18:23:33.330Z,40.30
2022-10-23T18:26:23.295Z,45.70
2022-10-23T18:29:56.212Z,50.80
2022-10-23T18:32:52.852Z,50.40
2022-10-23T18:45:24.723Z,44.00
2022-10-23T18:46:43.127Z,45.60
2022-10-23T19:01:19.642Z,39.00
2022-10-23T19:03:52.774Z,40.80
2022-10-23T19:17:39.856Z,43.40
2022-10-23T19:20:12.892Z,47.20
2022-10-23T19:22:50.154Z,44.80
2022-10-23T19:25:24.865Z,49.70
2022-10-23T19:32:47.014Z,39.70
2022-10-23T19:40:57.696Z,37.90
2022-10-23T19:43:29.050Z,76.50
2022-10-23T19:45:55.599Z,30.50
2022-10-23T19:48:23.893Z,28.80
2022-10-23T19:51:00.575Z,29.20
2022-10-23T19:57:25.084Z,26.70
2022-10-23T20:00:02.733Z,25.00
2022-10-23T20:02:39.284Z,27.70
2022-10-23T20:05:14.902Z,29.00
2022-10-23T20:07:49.339Z,27.80
2022-10-23T20:10:16.636Z,31.40
2022-10-23T20:13:14.785Z,29.40
2022-10-23T20:16:33.915Z,31.70
2022-10-23T20:19:35.630Z,31.20
2022-10-23T20:24:43.104Z,30.90
2022-10-23T20:30:11.437Z,34.70
2022-10-23T20:32:40.609Z,34.20
2022-10-23T20:35:09.800Z,33.80
2022-10-23T20:37:37.217Z,32.00
2022-10-23T20:40:08.352Z,30.90
2022-10-23T20:42:42.836Z,31.30
2022-10-23T20:49:24.685Z,27.70
2022-10-23T20:53:34.660Z,28.50
2022-10-23T20:55:33.044Z,28.20
2022-10-23T20:58:03.113Z,26.80
2022-10-23T21:02:49.962Z,27.40
2022-10-23T21:03:56.568Z,28.60
2022-10-23T21:06:25.590Z,26.80
2022-10-23T21:08:58.125Z,26.90
2022-10-23T21:11:25.624Z,27.50
2022-10-23T21:14:09.915Z,25.70
2022-10-23T21:17:12.165Z,24.60
2022-10-23T21:20:30.783Z,25.00
2022-10-23T21:23:02.153Z,25.20
2022-10-23T21:25:41.525Z,23.30
2022-10-23T21:28:09.295Z,23.20
2022-10-23T21:30:39.268Z,21.50
2022-10-23T21:33:36.583Z,22.80
2022-10-23T21:37:13.420Z,23.40
2022-10-23T21:41:01.502Z,22.70
2022-10-23T21:43:31.037Z,23.10
2022-10-23T21:46:17.359Z,23.90
2022-10-23T21:49:53.678Z,22.90
2022-10-23T21:52:17.614Z,22.00
2022-10-23T21:55:14.492Z,23.80
2022-10-23T21:58:15.126Z,25.30
2022-10-23T22:01:23.893Z,22.60
2022-10-23T22:04:22.979Z,23.60
2022-10-23T22:07:46.648Z,21.70
2022-10-23T22:10:40.437Z,21.90
2022-10-23T22:13:51.325Z,21.90
2022-10-23T22:16:34.726Z,21.50
2022-10-23T22:19:38.278Z,21.40
2022-10-23T22:22:24.872Z,21.40
2022-10-23T22:32:27.244Z,21.90
2022-10-23T22:34:58.255Z,20.10
2022-10-23T22:37:47.697Z,20.70
2022-10-23T22:40:27.237Z,21.50
2022-10-23T22:42:57.302Z,21.40
2022-10-23T22:48:32.181Z,21.00
2022-10-23T22:51:01.833Z,18.40
2022-10-23T22:53:34.080Z,17.90
2022-10-23T22:56:30.110Z,17.50
2022-10-23T22:59:00.767Z,16.90
2022-10-23T23:02:12.890Z,16.30
2022-10-23T23:04:43.204Z,15.50
2022-10-23T23:07:12.190Z,16.90
2022-10-23T23:09:43.038Z,16.50
2022-10-23T23:12:13.466Z,15.80
2022-10-23T23:17:48.371Z,14.40
2022-10-23T23:20:50.736Z,14.80
2022-10-23T23:23:26.147Z,14.90
2022-10-23T23:26:12.460Z,14.00
2022-10-23T23:40:37.940Z,13.10
2022-10-23T23:43:40.274Z,13.10
2022-10-23T23:46:32.998Z,12.00
2022-10-23T23:49:57.979Z,12.20
2022-10-23T23:52:34.481Z,11.60
2022-10-23T23:55:33.500Z,10.60
2022-10-23T23:58:01.941Z,10.70
